sensor_id;sensor_type;location;lat;lon;timestamp;pressure;altitude;pressure_sealevel;temperature;humidity
50430;BME280;36359;41.556;-8.418;2024-01-30T00:01:43;61952.03;;;13.79;100.00
50430;BME280;36359;41.556;-8.418;2024-01-30T00:04:08;61960.66;;;13.82;100.00
50430;BME280;36359;41.556;-8.418;2024-01-30T00:06:34;61967.03;;;13.91;100.00
50430;BME280;36359;41.556;-8.418;2024-01-30T00:09:00;61965.41;;;13.92;100.00
50430;BME280;36359;41.556;-8.418;2024-01-30T00:11:26;61970.25;;;13.94;100.00
50430;BME280;36359;41.556;-8.418;2024-01-30T00:13:52;61964.34;;;13.91;100.00
50430;BME280;36359;41.556;-8.418;2024-01-30T00:16:25;61962.22;;;13.89;100.00
50430;BME280;36359;41.556;-8.418;2024-01-30T00:18:51;61960.06;;;13.86;100.00
50430;BME280;36359;41.556;-8.418;2024-01-30T00:21:18;61964.34;;;13.91;100.00
50430;BME280;36359;41.556;-8.418;2024-01-30T00:23:43;61955.28;;;13.79;100.00
50430;BME280;36359;41.556;-8.418;2024-01-30T00:26:09;61954.22;;;13.78;100.00
50430;BME280;36359;41.556;-8.418;2024-01-30T00:28:35;61959.59;;;13.81;100.00
50430;BME280;36359;41.556;-8.418;2024-01-30T00:31:01;61967.56;;;13.91;100.00
50430;BME280;36359;41.556;-8.418;2024-01-30T00:33:26;61971.88;;;13.93;100.00
50430;BME280;36359;41.556;-8.418;2024-01-30T00:35:52;61976.66;;;14.00;100.00
50430;BME280;36359;41.556;-8.418;2024-01-30T00:38:18;61975.06;;;13.98;100.00
50430;BME280;36359;41.556;-8.418;2024-01-30T00:40:43;61975.03;;;14.01;100.00
50430;BME280;36359;41.556;-8.418;2024-01-30T00:43:09;61972.88;;;13.99;100.00
50430;BME280;36359;41.556;-8.418;2024-01-30T00:45:35;61985.75;;;14.08;100.00
50430;BME280;36359;41.556;-8.418;2024-01-30T00:48:01;61992.75;;;14.13;100.00
50430;BME280;36359;41.556;-8.418;2024-01-30T00:50:27;61990.00;;;14.15;100.00
50430;BME280;36359;41.556;-8.418;2024-01-30T00:52:52;61996.44;;;14.19;100.00
50430;BME280;36359;41.556;-8.418;2024-01-30T00:55:18;62004.47;;;14.26;100.00
50430;BME280;36359;41.556;-8.418;2024-01-30T00:57:44;62001.75;;;14.26;100.00
50430;BME280;36359;41.556;-8.418;2024-01-30T01:00:10;61995.91;;;14.18;100.00
50430;BME280;36359;41.556;-8.418;2024-01-30T01:02:36;61984.66;;;14.10;100.00
50430;BME280;36359;41.556;-8.418;2024-01-30T01:05:02;61967.03;;;13.91;100.00
50430;BME280;36359;41.556;-8.418;2024-01-30T01:07:28;61965.44;;;13.89;100.00
50430;BME280;36359;41.556;-8.418;2024-01-30T01:09:54;61961.13;;;13.88;100.00
50430;BME280;36359;41.556;-8.418;2024-01-30T01:12:20;61957.44;;;13.79;100.00
50430;BME280;36359;41.556;-8.418;2024-01-30T01:14:45;61946.19;;;13.71;100.00
50430;BME280;36359;41.556;-8.418;2024-01-30T01:17:12;61939.22;;;13.67;100.00
50430;BME280;36359;41.556;-8.418;2024-01-30T01:19:38;61939.78;;;13.64;100.00
50430;BME280;36359;41.556;-8.418;2024-01-30T01:22:04;61927.47;;;13.53;100.00
50430;BME280;36359;41.556;-8.418;2024-01-30T01:24:33;61940.88;;;13.63;100.00
50430;BME280;36359;41.556;-8.418;2024-01-30T01:26:59;61936.03;;;13.61;100.00
50430;BME280;36359;41.556;-8.418;2024-01-30T01:29:25;61939.25;;;13.64;100.00
50430;BME280;36359;41.556;-8.418;2024-01-30T01:31:58;61951.56;;;13.73;100.00
50430;BME280;36359;41.556;-8.418;2024-01-30T01:34:24;61946.19;;;13.71;100.00
50430;BME280;36359;41.556;-8.418;2024-01-30T01:36:50;61952.06;;;13.76;100.00
50430;BME280;36359;41.556;-8.418;2024-01-30T01:39:17;61951.53;;;13.76;100.00
50430;BME280;36359;41.556;-8.418;2024-01-30T01:41:43;61950.47;;;13.75;100.00
50430;BME280;36359;41.556;-8.418;2024-01-30T01:44:08;61951.00;;;13.75;100.00
50430;BME280;36359;41.556;-8.418;2024-01-30T01:49:07;61942.44;;;13.67;100.00
50430;BME280;36359;41.556;-8.418;2024-01-30T01:51:35;61930.66;;;13.58;100.00
50430;BME280;36359;41.556;-8.418;2024-01-30T01:54:03;61936.59;;;13.59;100.00
50430;BME280;36359;41.556;-8.418;2024-01-30T01:56:31;61943.53;;;13.68;100.00
50430;BME280;36359;41.556;-8.418;2024-01-30T01:59:00;61942.44;;;13.67;100.00
50430;BME280;36359;41.556;-8.418;2024-01-30T02:01:27;61953.16;;;13.77;100.00
50430;BME280;36359;41.556;-8.418;2024-01-30T02:03:55;61950.97;;;13.78;100.00
50430;BME280;36359;41.556;-8.418;2024-01-30T02:06:21;61964.91;;;13.89;100.00
50430;BME280;36359;41.556;-8.418;2024-01-30T02:08:47;61966.53;;;13.88;100.00
50430;BME280;36359;41.556;-8.418;2024-01-30T02:11:13;61971.84;;;13.95;100.00
50430;BME280;36359;41.556;-8.418;2024-01-30T02:13:41;61962.22;;;13.89;100.00
50430;BME280;36359;41.556;-8.418;2024-01-30T02:16:06;61958.53;;;13.80;100.00
50430;BME280;36359;41.556;-8.418;2024-01-30T02:18:32;61933.34;;;13.61;100.00
50430;BME280;36359;41.556;-8.418;2024-01-30T02:20:59;61928.03;;;13.53;100.00
50430;BME280;36359;41.556;-8.418;2024-01-30T02:23:30;61903.94;;;13.35;100.00
50430;BME280;36359;41.556;-8.418;2024-01-30T02:25:58;61906.09;;;13.32;100.00
50430;BME280;36359;41.556;-8.418;2024-01-30T02:28:24;61933.34;;;13.58;100.00
50430;BME280;36359;41.556;-8.418;2024-01-30T02:30:50;61934.94;;;13.62;100.00
50430;BME280;36359;41.556;-8.418;2024-01-30T02:33:16;61931.78;;;13.54;100.00
50430;BME280;36359;41.556;-8.418;2024-01-30T02:35:42;61925.91;;;13.49;100.00
50430;BME280;36359;41.556;-8.418;2024-01-30T02:38:08;61911.44;;;13.40;100.00
50430;BME280;36359;41.556;-8.418;2024-01-30T02:40:33;61904.47;;;13.33;100.00
50430;BME280;36359;41.556;-8.418;2024-01-30T02:43:01;61900.78;;;13.27;100.00
50430;BME280;36359;41.556;-8.418;2024-01-30T02:45:30;61891.66;;;13.21;100.00
50430;BME280;36359;41.556;-8.418;2024-01-30T02:47:55;61889.56;;;13.14;100.00
50430;BME280;36359;41.556;-8.418;2024-01-30T02:50:21;61887.34;;;13.17;100.00
50430;BME280;36359;41.556;-8.418;2024-01-30T02:52:47;61887.44;;;13.12;100.00
50430;BME280;36359;41.556;-8.418;2024-01-30T02:55:12;61853.72;;;12.82;100.00
50430;BME280;36359;41.556;-8.418;2024-01-30T02:57:38;61855.34;;;12.84;100.00
50430;BME280;36359;41.556;-8.418;2024-01-30T03:00:05;61850.53;;;12.79;100.00
50430;BME280;36359;41.556;-8.418;2024-01-30T03:02:35;61847.31;;;12.76;100.00
50430;BME280;36359;41.556;-8.418;2024-01-30T03:05:00;61863.38;;;12.91;100.00
50430;BME280;36359;41.556;-8.418;2024-01-30T03:07:26;61851.03;;;12.82;100.00
50430;BME280;36359;41.556;-8.418;2024-01-30T03:09:52;61867.13;;;12.92;100.00
50430;BME280;36359;41.556;-8.418;2024-01-30T03:12:18;61856.91;;;12.88;100.00
50430;BME280;36359;41.556;-8.418;2024-01-30T03:14:43;61864.97;;;12.90;100.00
50430;BME280;36359;41.556;-8.418;2024-01-30T03:17:15;61867.59;;;12.98;100.00
50430;BME280;36359;41.556;-8.418;2024-01-30T03:19:41;61856.34;;;12.90;100.00
50430;BME280;36359;41.556;-8.418;2024-01-30T03:22:07;61854.25;;;12.85;100.00
50430;BME280;36359;41.556;-8.418;2024-01-30T03:24:33;61865.47;;;12.93;100.00
50430;BME280;36359;41.556;-8.418;2024-01-30T03:26:59;61855.31;;;12.86;100.00
50430;BME280;36359;41.556;-8.418;2024-01-30T03:29:24;61840.38;;;12.72;100.00
50430;BME280;36359;41.556;-8.418;2024-01-30T03:31:50;61867.63;;;12.95;100.00
50430;BME280;36359;41.556;-8.418;2024-01-30T03:34:16;61861.78;;;12.87;100.00
50430;BME280;36359;41.556;-8.418;2024-01-30T03:36:41;61837.19;;;12.66;100.00
50430;BME280;36359;41.556;-8.418;2024-01-30T03:39:07;61859.66;;;12.85;100.00
50430;BME280;36359;41.556;-8.418;2024-01-30T03:41:33;61858.53;;;12.89;100.00
50430;BME280;36359;41.556;-8.418;2024-01-30T03:43:59;61874.59;;;13.00;100.00
50430;BME280;36359;41.556;-8.418;2024-01-30T03:46:25;61845.19;;;12.74;100.00
50430;BME280;36359;41.556;-8.418;2024-01-30T03:48:50;61868.13;;;12.99;100.00
50430;BME280;36359;41.556;-8.418;2024-01-30T03:51:16;61861.19;;;12.92;100.00
50430;BME280;36359;41.556;-8.418;2024-01-30T03:53:42;61849.97;;;12.81;100.00
50430;BME280;36359;41.556;-8.418;2024-01-30T03:56:09;61866.00;;;12.94;100.00
50430;BME280;36359;41.556;-8.418;2024-01-30T03:58:35;61866.00;;;12.96;100.00
50430;BME280;36359;41.556;-8.418;2024-01-30T04:01:01;61864.41;;;12.92;100.00
50430;BME280;36359;41.556;-8.418;2024-01-30T04:03:27;61860.63;;;12.94;100.00
50430;BME280;36359;41.556;-8.418;2024-01-30T04:05:52;61867.13;;;12.92;100.00
50430;BME280;36359;41.556;-8.418;2024-01-30T04:08:19;61850.53;;;12.79;100.00
50430;BME280;36359;41.556;-8.418;2024-01-30T04:10:46;61855.31;;;12.86;100.00
50430;BME280;36359;41.556;-8.418;2024-01-30T04:13:12;61834.50;;;12.64;100.00
50430;BME280;36359;41.556;-8.418;2024-01-30T04:15:37;61813.66;;;12.46;100.00
50430;BME280;36359;41.556;-8.418;2024-01-30T04:18:03;61863.31;;;12.94;100.00
50430;BME280;36359;41.556;-8.418;2024-01-30T04:20:29;61831.84;;;12.61;100.00
50430;BME280;36359;41.556;-8.418;2024-01-30T04:22:55;61824.91;;;12.55;100.00
50430;BME280;36359;41.556;-8.418;2024-01-30T04:25:21;61816.34;;;12.46;100.00
50430;BME280;36359;41.556;-8.418;2024-01-30T04:27:47;61807.84;;;12.38;100.00
50430;BME280;36359;41.556;-8.418;2024-01-30T04:30:13;61807.25;;;12.40;100.00
50430;BME280;36359;41.556;-8.418;2024-01-30T04:32:39;61804.06;;;12.37;100.00
50430;BME280;36359;41.556;-8.418;2024-01-30T04:35:05;61851.03;;;12.82;100.00
50430;BME280;36359;41.556;-8.418;2024-01-30T04:37:31;61856.94;;;12.85;100.00
50430;BME280;36359;41.556;-8.418;2024-01-30T04:39:56;61873.53;;;12.99;100.00
50430;BME280;36359;41.556;-8.418;2024-01-30T04:42:22;61885.25;;;13.12;100.00
50430;BME280;36359;41.556;-8.418;2024-01-30T04:44:48;61846.81;;;12.73;100.00
50430;BME280;36359;41.556;-8.418;2024-01-30T04:47:14;61818.50;;;12.48;100.00
50430;BME280;36359;41.556;-8.418;2024-01-30T04:49:39;61814.22;;;12.44;100.00
50430;BME280;36359;41.556;-8.418;2024-01-30T04:52:06;61802.50;;;12.33;100.00
50430;BME280;36359;41.556;-8.418;2024-01-30T04:54:32;61846.25;;;12.75;100.00
50430;BME280;36359;41.556;-8.418;2024-01-30T04:56:58;61854.31;;;12.80;100.00
50430;BME280;36359;41.556;-8.418;2024-01-30T04:59:24;61871.34;;;13.02;100.00
50430;BME280;36359;41.556;-8.418;2024-01-30T05:01:50;61867.06;;;12.98;100.00
50430;BME280;36359;41.556;-8.418;2024-01-30T05:04:16;61858.03;;;12.84;100.00
50430;BME280;36359;41.556;-8.418;2024-01-30T05:06:42;61855.31;;;12.86;100.00
50430;BME280;36359;41.556;-8.418;2024-01-30T05:09:08;61832.94;;;12.60;100.00
50430;BME280;36359;41.556;-8.418;2024-01-30T05:11:38;61820.56;;;12.56;100.00
50430;BME280;36359;41.556;-8.418;2024-01-30T05:14:05;61843.06;;;12.72;100.00
50430;BME280;36359;41.556;-8.418;2024-01-30T05:16:31;61839.88;;;12.66;100.00
50430;BME280;36359;41.556;-8.418;2024-01-30T05:18:57;61825.97;;;12.56;100.00
50430;BME280;36359;41.556;-8.418;2024-01-30T05:21:23;61829.22;;;12.56;100.00
50430;BME280;36359;41.556;-8.418;2024-01-30T05:23:49;61824.94;;;12.52;100.00
50430;BME280;36359;41.556;-8.418;2024-01-30T05:26:15;61812.63;;;12.43;100.00
50430;BME280;36359;41.556;-8.418;2024-01-30T05:28:41;61820.06;;;12.53;100.00
50430;BME280;36359;41.556;-8.418;2024-01-30T05:31:06;61816.88;;;12.49;100.00
50430;BME280;36359;41.556;-8.418;2024-01-30T05:33:32;61807.25;;;12.40;100.00
50430;BME280;36359;41.556;-8.418;2024-01-30T05:35:58;61812.59;;;12.45;100.00
50430;BME280;36359;41.556;-8.418;2024-01-30T05:38:23;61813.13;;;12.46;100.00
50430;BME280;36359;41.556;-8.418;2024-01-30T05:40:49;61801.97;;;12.30;100.00
50430;BME280;36359;41.556;-8.418;2024-01-30T05:43:15;61813.13;;;12.46;100.00
50430;BME280;36359;41.556;-8.418;2024-01-30T05:45:41;61793.94;;;12.25;100.00
50430;BME280;36359;41.556;-8.418;2024-01-30T05:50:36;61780.59;;;12.12;100.00
50430;BME280;36359;41.556;-8.418;2024-01-30T05:53:01;61767.81;;;11.97;100.00
50430;BME280;36359;41.556;-8.418;2024-01-30T05:55:27;61754.44;;;11.87;100.00
50430;BME280;36359;41.556;-8.418;2024-01-30T05:57:53;61742.13;;;11.78;100.00
50430;BME280;36359;41.556;-8.418;2024-01-30T06:00:19;61736.28;;;11.70;100.00
50430;BME280;36359;41.556;-8.418;2024-01-30T06:02:44;61756.06;;;11.89;100.00
50430;BME280;36359;41.556;-8.418;2024-01-30T06:05:10;61752.84;;;11.86;100.00
50430;BME280;36359;41.556;-8.418;2024-01-30T06:07:36;61761.94;;;11.94;100.00
50430;BME280;36359;41.556;-8.418;2024-01-30T06:10:02;61760.84;;;11.93;100.00
50430;BME280;36359;41.556;-8.418;2024-01-30T06:12:28;61757.09;;;11.92;100.00
50430;BME280;36359;41.556;-8.418;2024-01-30T06:14:54;61767.75;;;12.02;100.00
50430;BME280;36359;41.556;-8.418;2024-01-30T06:17:23;61773.66;;;12.05;100.00
50430;BME280;36359;41.556;-8.418;2024-01-30T06:19:48;61780.59;;;12.15;100.00
50430;BME280;36359;41.556;-8.418;2024-01-30T06:22:15;61770.44;;;12.02;100.00
50430;BME280;36359;41.556;-8.418;2024-01-30T06:24:41;61779.53;;;12.09;100.00
50430;BME280;36359;41.556;-8.418;2024-01-30T06:27:07;61755.50;;;11.88;100.00
50430;BME280;36359;41.556;-8.418;2024-01-30T06:29:32;61761.38;;;11.94;100.00
50430;BME280;36359;41.556;-8.418;2024-01-30T06:31:59;61791.28;;;12.22;100.00
50430;BME280;36359;41.556;-8.418;2024-01-30T06:34:24;61800.31;;;12.34;100.00
50430;BME280;36359;41.556;-8.418;2024-01-30T06:36:52;61770.47;;;12.00;100.00
50430;BME280;36359;41.556;-8.418;2024-01-30T06:39:18;61768.84;;;12.03;100.00
50430;BME280;36359;41.556;-8.418;2024-01-30T06:41:44;61772.06;;;12.04;100.00
50430;BME280;36359;41.556;-8.418;2024-01-30T06:44:12;61759.28;;;11.89;100.00
50430;BME280;36359;41.556;-8.418;2024-01-30T06:46:38;61758.19;;;11.91;100.00
50430;BME280;36359;41.556;-8.418;2024-01-30T06:49:04;61760.34;;;11.90;100.00
50430;BME280;36359;41.556;-8.418;2024-01-30T06:51:30;61753.91;;;11.87;100.00
50430;BME280;36359;41.556;-8.418;2024-01-30T06:53:56;61736.25;;;11.72;100.00
50430;BME280;36359;41.556;-8.418;2024-01-30T06:56:21;61757.13;;;11.87;100.00
50430;BME280;36359;41.556;-8.418;2024-01-30T06:58:51;61780.63;;;12.10;100.00
50430;BME280;36359;41.556;-8.418;2024-01-30T07:01:16;61726.69;;;11.58;100.00
50430;BME280;36359;41.556;-8.418;2024-01-30T07:03:42;61733.59;;;11.67;100.00
50430;BME280;36359;41.556;-8.418;2024-01-30T07:06:09;61730.41;;;11.64;100.00
50430;BME280;36359;41.556;-8.418;2024-01-30T07:08:37;61754.97;;;11.88;100.00
50430;BME280;36359;41.556;-8.418;2024-01-30T07:11:05;61758.16;;;11.93;100.00
50430;BME280;36359;41.556;-8.418;2024-01-30T07:13:31;61764.03;;;11.99;100.00
50430;BME280;36359;41.556;-8.418;2024-01-30T07:15:57;61778.47;;;12.08;100.00
50430;BME280;36359;41.556;-8.418;2024-01-30T07:18:23;61791.25;;;12.25;100.00
50430;BME280;36359;41.556;-8.418;2024-01-30T07:20:49;61789.69;;;12.21;100.00
50430;BME280;36359;41.556;-8.418;2024-01-30T07:23:16;61779.53;;;12.09;100.00
50430;BME280;36359;41.556;-8.418;2024-01-30T07:25:46;61769.38;;;12.01;100.00
50430;BME280;36359;41.556;-8.418;2024-01-30T07:28:15;61758.69;;;11.94;100.00
50430;BME280;36359;41.556;-8.418;2024-01-30T07:30:43;61762.47;;;11.92;100.00
50430;BME280;36359;41.556;-8.418;2024-01-30T07:33:09;61818.50;;;12.48;100.00
50430;BME280;36359;41.556;-8.418;2024-01-30T07:35:38;61820.06;;;12.53;100.00
50430;BME280;36359;41.556;-8.418;2024-01-30T07:38:04;61906.69;;;13.30;100.00
50430;BME280;36359;41.556;-8.418;2024-01-30T07:40:30;61904.47;;;13.33;100.00
50430;BME280;36359;41.556;-8.418;2024-01-30T07:42:55;61866.00;;;12.96;100.00
50430;BME280;36359;41.556;-8.418;2024-01-30T07:45:21;61843.59;;;12.72;100.00
50430;BME280;36359;41.556;-8.418;2024-01-30T07:47:51;61831.88;;;12.59;100.00
50430;BME280;36359;41.556;-8.418;2024-01-30T07:50:17;61819.06;;;12.46;100.00
50430;BME280;36359;41.556;-8.418;2024-01-30T07:52:44;61799.81;;;12.31;100.00
50430;BME280;36359;41.556;-8.418;2024-01-30T07:55:10;61794.44;;;12.28;100.00
50430;BME280;36359;41.556;-8.418;2024-01-30T07:57:38;61757.09;;;11.92;100.00
50430;BME280;36359;41.556;-8.418;2024-01-30T08:00:05;61769.38;;;12.01;100.00
50430;BME280;36359;41.556;-8.418;2024-01-30T08:02:34;61779.00;;;12.11;100.00
50430;BME280;36359;41.556;-8.418;2024-01-30T08:05:00;61776.31;;;12.08;100.00
50430;BME280;36359;41.556;-8.418;2024-01-30T08:07:25;61809.41;;;12.40;100.00
50430;BME280;36359;41.556;-8.418;2024-01-30T08:09:51;61789.16;;;12.18;100.00
50430;BME280;36359;41.556;-8.418;2024-01-30T08:12:17;61819.56;;;12.49;100.00
50430;BME280;36359;41.556;-8.418;2024-01-30T08:14:46;61828.63;;;12.58;100.00
50430;BME280;36359;41.556;-8.418;2024-01-30T08:17:13;61804.06;;;12.35;100.00
50430;BME280;36359;41.556;-8.418;2024-01-30T08:19:39;61809.44;;;12.37;100.00
50430;BME280;36359;41.556;-8.418;2024-01-30T08:22:04;61811.00;;;12.44;100.00
50430;BME280;36359;41.556;-8.418;2024-01-30T08:24:30;61806.75;;;12.37;100.00
50430;BME280;36359;41.556;-8.418;2024-01-30T08:26:56;61804.06;;;12.35;100.00
50430;BME280;36359;41.556;-8.418;2024-01-30T08:29:23;61797.16;;;12.28;100.00
50430;BME280;36359;41.556;-8.418;2024-01-30T08:31:50;61812.09;;;12.42;100.00
50430;BME280;36359;41.556;-8.418;2024-01-30T08:34:18;61816.88;;;12.47;100.00
50430;BME280;36359;41.556;-8.418;2024-01-30T08:36:44;61813.16;;;12.43;100.00
50430;BME280;36359;41.556;-8.418;2024-01-30T08:39:10;61824.41;;;12.52;100.00
50430;BME280;36359;41.556;-8.418;2024-01-30T08:41:36;61819.03;;;12.49;100.00
50430;BME280;36359;41.556;-8.418;2024-01-30T08:44:02;61806.72;;;12.40;100.00
50430;BME280;36359;41.556;-8.418;2024-01-30T08:46:28;61820.63;;;12.50;100.00
50430;BME280;36359;41.556;-8.418;2024-01-30T08:48:54;61823.31;;;12.53;100.00
50430;BME280;36359;41.556;-8.418;2024-01-30T08:51:20;61814.75;;;12.45;100.00
50430;BME280;36359;41.556;-8.418;2024-01-30T08:53:46;61812.59;;;12.45;100.00
50430;BME280;36359;41.556;-8.418;2024-01-30T08:56:12;61825.97;;;12.56;100.00
50430;BME280;36359;41.556;-8.418;2024-01-30T08:58:37;61844.13;;;12.73;100.00
50430;BME280;36359;41.556;-8.418;2024-01-30T09:01:03;61838.78;;;12.68;100.00
50430;BME280;36359;41.556;-8.418;2024-01-30T09:03:31;61850.03;;;12.76;100.00
50430;BME280;36359;41.556;-8.418;2024-01-30T09:05:57;61845.19;;;12.74;100.00
50430;BME280;36359;41.556;-8.418;2024-01-30T09:08:22;61845.19;;;12.74;100.00
50430;BME280;36359;41.556;-8.418;2024-01-30T09:10:48;61842.00;;;12.71;100.00
50430;BME280;36359;41.556;-8.418;2024-01-30T09:13:15;61836.63;;;12.68;100.00
50430;BME280;36359;41.556;-8.418;2024-01-30T09:15:45;61876.19;;;13.04;100.00
50430;BME280;36359;41.556;-8.418;2024-01-30T09:18:14;61877.22;;;13.07;100.00
50430;BME280;36359;41.556;-8.418;2024-01-30T09:20:41;61872.47;;;12.98;100.00
50430;BME280;36359;41.556;-8.418;2024-01-30T09:23:07;61871.88;;;13.00;100.00
50430;BME280;36359;41.556;-8.418;2024-01-30T09:25:33;61878.84;;;13.06;100.00
50430;BME280;36359;41.556;-8.418;2024-01-30T09:28:03;61886.81;;;13.16;100.00
50430;BME280;36359;41.556;-8.418;2024-01-30T09:30:28;61901.84;;;13.28;100.00
50430;BME280;36359;41.556;-8.418;2024-01-30T09:32:54;61902.38;;;13.29;100.00
50430;BME280;36359;41.556;-8.418;2024-01-30T09:35:20;61898.06;;;13.27;100.00
50430;BME280;36359;41.556;-8.418;2024-01-30T09:37:46;61903.94;;;13.33;100.00
50430;BME280;36359;41.556;-8.418;2024-01-30T09:40:12;61929.13;;;13.52;100.00
50430;BME280;36359;41.556;-8.418;2024-01-30T09:42:37;61908.22;;;13.37;100.00
50430;BME280;36359;41.556;-8.418;2024-01-30T09:45:05;61924.78;;;13.53;100.00
50430;BME280;36359;41.556;-8.418;2024-01-30T09:47:37;61927.44;;;13.55;100.00
50430;BME280;36359;41.556;-8.418;2024-01-30T09:50:09;61938.69;;;13.66;100.00
50430;BME280;36359;41.556;-8.418;2024-01-30T09:52:35;61927.97;;;13.56;100.00
50430;BME280;36359;41.556;-8.418;2024-01-30T09:55:01;61924.25;;;13.52;100.00
50430;BME280;36359;41.556;-8.418;2024-01-30T09:57:27;61939.75;;;13.67;100.00
50430;BME280;36359;41.556;-8.418;2024-01-30T09:59:53;61961.66;;;13.88;100.00
50430;BME280;36359;41.556;-8.418;2024-01-30T10:02:20;61960.56;;;13.90;100.00
50430;BME280;36359;41.556;-8.418;2024-01-30T10:04:48;61976.09;;;14.02;100.00
50430;BME280;36359;41.556;-8.418;2024-01-30T10:07:15;61979.34;;;14.02;100.00
50430;BME280;36359;41.556;-8.418;2024-01-30T10:09:41;61994.84;;;14.17;100.00
50430;BME280;36359;41.556;-8.418;2024-01-30T10:12:08;62002.84;;;14.27;100.00
50430;BME280;36359;41.556;-8.418;2024-01-30T10:14:38;62005.50;;;14.30;100.00
50430;BME280;36359;41.556;-8.418;2024-01-30T10:17:04;62003.38;;;14.28;100.00
50430;BME280;36359;41.556;-8.418;2024-01-30T10:19:36;62019.94;;;14.44;100.00
50430;BME280;36359;41.556;-8.418;2024-01-30T10:22:05;62026.94;;;14.48;100.00
50430;BME280;36359;41.556;-8.418;2024-01-30T10:24:33;62019.94;;;14.44;100.00
50430;BME280;36359;41.556;-8.418;2024-01-30T10:27:00;62021.59;;;14.43;100.00
50430;BME280;36359;41.556;-8.418;2024-01-30T10:29:29;62023.69;;;14.47;100.00
50430;BME280;36359;41.556;-8.418;2024-01-30T10:32:02;62032.81;;;14.56;100.00
50430;BME280;36359;41.556;-8.418;2024-01-30T10:34:28;62027.47;;;14.48;100.00
50430;BME280;36359;41.556;-8.418;2024-01-30T10:37:15;62044.06;;;14.64;100.00
50430;BME280;36359;41.556;-8.418;2024-01-30T10:39:45;62025.34;;;14.44;100.00
50430;BME280;36359;41.556;-8.418;2024-01-30T10:42:17;62018.88;;;14.43;100.00
50430;BME280;36359;41.556;-8.418;2024-01-30T10:45:11;62036.56;;;14.60;100.00
50430;BME280;36359;41.556;-8.418;2024-01-30T10:47:48;62048.34;;;14.68;100.00
50430;BME280;36359;41.556;-8.418;2024-01-30T10:50:15;62060.09;;;14.82;100.00
50430;BME280;36359;41.556;-8.418;2024-01-30T10:52:42;62061.16;;;14.83;100.00
50430;BME280;36359;41.556;-8.418;2024-01-30T10:55:09;62078.31;;;14.97;100.00
50430;BME280;36359;41.556;-8.418;2024-01-30T10:57:35;62079.94;;;14.96;100.00
50430;BME280;36359;41.556;-8.418;2024-01-30T11:00:04;62086.84;;;15.08;100.00
50430;BME280;36359;41.556;-8.418;2024-01-30T11:02:40;62101.28;;;15.21;100.00
50430;BME280;36359;41.556;-8.418;2024-01-30T11:05:08;62109.91;;;15.27;100.00
50430;BME280;36359;41.556;-8.418;2024-01-30T11:07:34;62110.38;;;15.33;100.00
50430;BME280;36359;41.556;-8.418;2024-01-30T11:10:02;62125.88;;;15.48;100.00
50430;BME280;36359;41.556;-8.418;2024-01-30T11:12:30;62116.81;;;15.36;100.00
50430;BME280;36359;41.556;-8.418;2024-01-30T11:15:13;62132.34;;;15.51;100.00
50430;BME280;36359;41.556;-8.418;2024-01-30T11:17:50;62140.91;;;15.59;100.00
50430;BME280;36359;41.556;-8.418;2024-01-30T11:22:45;62174.09;;;15.94;100.00
50430;BME280;36359;41.556;-8.418;2024-01-30T11:25:19;62180.56;;;15.97;100.00
50430;BME280;36359;41.556;-8.418;2024-01-30T11:27:46;62190.75;;;16.04;100.00
50430;BME280;36359;41.556;-8.418;2024-01-30T11:30:25;62179.97;;;15.99;100.00
50430;BME280;36359;41.556;-8.418;2024-01-30T11:33:04;62172.00;;;15.89;100.00
50430;BME280;36359;41.556;-8.418;2024-01-30T11:38:01;62190.72;;;16.07;100.00
50430;BME280;36359;41.556;-8.418;2024-01-30T11:40:28;62192.88;;;16.09;100.00
50430;BME280;36359;41.556;-8.418;2024-01-30T11:42:58;62189.66;;;16.06;100.00
50430;BME280;36359;41.556;-8.418;2024-01-30T11:45:26;62191.75;;;16.10;100.00
50430;BME280;36359;41.556;-8.418;2024-01-30T11:47:53;62181.09;;;15.98;100.00
50430;BME280;36359;41.556;-8.418;2024-01-30T11:50:18;62201.97;;;16.18;100.00
50430;BME280;36359;41.556;-8.418;2024-01-30T11:52:44;62198.75;;;16.15;100.00
50430;BME280;36359;41.556;-8.418;2024-01-30T11:55:10;62221.28;;;16.36;100.00
50430;BME280;36359;41.556;-8.418;2024-01-30T11:57:39;62235.19;;;16.49;100.00
50430;BME280;36359;41.556;-8.418;2024-01-30T12:00:05;62242.69;;;16.56;100.00
50430;BME280;36359;41.556;-8.418;2024-01-30T12:02:36;62228.75;;;16.43;100.00
50430;BME280;36359;41.556;-8.418;2024-01-30T12:05:06;62224.97;;;16.42;100.00
50430;BME280;36359;41.556;-8.418;2024-01-30T12:07:35;62240.56;;;16.54;100.00
50430;BME280;36359;41.556;-8.418;2024-01-30T12:10:01;62245.38;;;16.59;100.00
50430;BME280;36359;41.556;-8.418;2024-01-30T12:12:28;62239.47;;;16.56;100.00
50430;BME280;36359;41.556;-8.418;2024-01-30T12:14:55;62248.63;;;16.60;100.00
50430;BME280;36359;41.556;-8.418;2024-01-30T12:17:31;62252.88;;;16.66;100.00
50430;BME280;36359;41.556;-8.418;2024-01-30T12:25:04;62296.84;;;17.08;100.00
50430;BME280;36359;41.556;-8.418;2024-01-30T12:27:30;62296.28;;;17.10;100.00
50430;BME280;36359;41.556;-8.418;2024-01-30T12:29:57;62302.75;;;17.14;100.00
50430;BME280;36359;41.556;-8.418;2024-01-30T12:32:23;62304.38;;;17.15;100.00
50430;BME280;36359;41.556;-8.418;2024-01-30T12:34:49;62302.75;;;17.14;100.00
50430;BME280;36359;41.556;-8.418;2024-01-30T12:37:15;62304.84;;;17.21;100.00
50430;BME280;36359;41.556;-8.418;2024-01-30T12:39:48;62316.69;;;17.27;100.00
50430;BME280;36359;41.556;-8.418;2024-01-30T12:42:14;62325.78;;;17.38;100.00
50430;BME280;36359;41.556;-8.418;2024-01-30T12:44:41;62335.47;;;17.45;100.00
50430;BME280;36359;41.556;-8.418;2024-01-30T12:47:09;62336.50;;;17.48;100.00
50430;BME280;36359;41.556;-8.418;2024-01-30T12:49:35;62338.16;;;17.47;100.00
50430;BME280;36359;41.556;-8.418;2024-01-30T12:52:01;62346.16;;;17.58;100.00
50430;BME280;36359;41.556;-8.418;2024-01-30T12:54:28;62363.88;;;17.72;100.00